Point Edward, Canada
Current Conditions -  °F | °C
As of 10:10 PM on Wednesday 26 Nov 2014 (Local Time) from CYZR Reporting Station
Light Rain Light Rain  
Wind Chill: 34°   Ceiling: 2400
Heat Index: 34°   Visibility: 9mi
Dew Point: 27°   Wind: 3mph
Humidity: 75%   Direction: 240°WSW
Pressure: 30.07"   Gusts: NA
Location:  43°N, 82.41°W
Report Text: CYZR 270310Z AUTO 24003KT 9SM -RA OVC024 01/M03 A3007 RMK SLP191
Loading
Personal Weather Stations






























Interactive Weather Map New forecast layout! Learn more

10-Day Weather Forecast

Advertisements
Track Severe Weather on mobile